sensor_id;sensor_type;location;lat;lon;timestamp;P1;durP1;ratioP1;P2;durP2;ratioP2
60851;SDS011;48553;50.766;2.900;2022-08-19T00:01:08;14.30;;;9.07;;
60851;SDS011;48553;50.766;2.900;2022-08-19T00:04:09;12.35;;;8.65;;
60851;SDS011;48553;50.766;2.900;2022-08-19T00:07:12;14.63;;;8.90;;
60851;SDS011;48553;50.766;2.900;2022-08-19T00:10:13;13.43;;;8.60;;
60851;SDS011;48553;50.766;2.900;2022-08-19T00:13:15;15.18;;;8.80;;
60851;SDS011;48553;50.766;2.900;2022-08-19T00:16:17;12.70;;;8.43;;
60851;SDS011;48553;50.766;2.900;2022-08-19T00:19:21;15.18;;;8.88;;
60851;SDS011;48553;50.766;2.900;2022-08-19T00:22:22;13.07;;;8.25;;
60851;SDS011;48553;50.766;2.900;2022-08-19T00:25:22;13.35;;;8.20;;
60851;SDS011;48553;50.766;2.900;2022-08-19T00:28:23;15.32;;;8.10;;
60851;SDS011;48553;50.766;2.900;2022-08-19T00:31:23;12.52;;;8.00;;
60851;SDS011;48553;50.766;2.900;2022-08-19T00:34:25;13.65;;;7.97;;
60851;SDS011;48553;50.766;2.900;2022-08-19T00:37:27;12.90;;;7.65;;
60851;SDS011;48553;50.766;2.900;2022-08-19T00:40:28;14.13;;;7.57;;
60851;SDS011;48553;50.766;2.900;2022-08-19T00:43:30;14.45;;;7.88;;
60851;SDS011;48553;50.766;2.900;2022-08-19T00:46:32;13.35;;;7.13;;
60851;SDS011;48553;50.766;2.900;2022-08-19T00:49:41;14.70;;;7.88;;
60851;SDS011;48553;50.766;2.900;2022-08-19T00:52:50;13.07;;;7.35;;
60851;SDS011;48553;50.766;2.900;2022-08-19T00:55:52;11.80;;;7.53;;
60851;SDS011;48553;50.766;2.900;2022-08-19T00:58:56;11.55;;;7.32;;
60851;SDS011;48553;50.766;2.900;2022-08-19T01:01:58;12.35;;;7.15;;
60851;SDS011;48553;50.766;2.900;2022-08-19T01:05:00;12.32;;;6.95;;
60851;SDS011;48553;50.766;2.900;2022-08-19T01:08:05;13.13;;;6.78;;
60851;SDS011;48553;50.766;2.900;2022-08-19T01:11:06;12.13;;;6.57;;
60851;SDS011;48553;50.766;2.900;2022-08-19T01:14:07;12.02;;;6.45;;
60851;SDS011;48553;50.766;2.900;2022-08-19T01:17:10;10.20;;;6.50;;
60851;SDS011;48553;50.766;2.900;2022-08-19T01:20:12;11.50;;;6.18;;
60851;SDS011;48553;50.766;2.900;2022-08-19T01:23:16;11.52;;;6.22;;
60851;SDS011;48553;50.766;2.900;2022-08-19T01:26:20;10.63;;;5.82;;
60851;SDS011;48553;50.766;2.900;2022-08-19T01:29:22;10.02;;;5.90;;
60851;SDS011;48553;50.766;2.900;2022-08-19T01:32:23;10.82;;;5.90;;
60851;SDS011;48553;50.766;2.900;2022-08-19T01:35:24;11.07;;;5.70;;
60851;SDS011;48553;50.766;2.900;2022-08-19T01:38:26;11.35;;;5.70;;
60851;SDS011;48553;50.766;2.900;2022-08-19T01:41:28;10.75;;;5.68;;
60851;SDS011;48553;50.766;2.900;2022-08-19T01:44:28;10.45;;;5.40;;
60851;SDS011;48553;50.766;2.900;2022-08-19T01:47:29;8.40;;;5.15;;
60851;SDS011;48553;50.766;2.900;2022-08-19T01:50:30;9.98;;;5.10;;
60851;SDS011;48553;50.766;2.900;2022-08-19T01:53:31;10.88;;;5.00;;
60851;SDS011;48553;50.766;2.900;2022-08-19T01:56:32;8.30;;;4.78;;
60851;SDS011;48553;50.766;2.900;2022-08-19T01:59:33;7.97;;;4.57;;
60851;SDS011;48553;50.766;2.900;2022-08-19T02:02:36;8.98;;;4.70;;
60851;SDS011;48553;50.766;2.900;2022-08-19T02:05:37;9.63;;;5.28;;
60851;SDS011;48553;50.766;2.900;2022-08-19T02:08:39;7.95;;;5.00;;
60851;SDS011;48553;50.766;2.900;2022-08-19T02:11:40;7.70;;;4.82;;
60851;SDS011;48553;50.766;2.900;2022-08-19T02:14:41;8.45;;;4.82;;
60851;SDS011;48553;50.766;2.900;2022-08-19T02:17:43;8.63;;;4.50;;
60851;SDS011;48553;50.766;2.900;2022-08-19T02:20:44;10.10;;;4.60;;
60851;SDS011;48553;50.766;2.900;2022-08-19T02:23:47;7.05;;;4.63;;
60851;SDS011;48553;50.766;2.900;2022-08-19T02:26:48;9.23;;;4.80;;
60851;SDS011;48553;50.766;2.900;2022-08-19T02:29:49;8.23;;;4.25;;
60851;SDS011;48553;50.766;2.900;2022-08-19T02:32:50;10.15;;;4.82;;
60851;SDS011;48553;50.766;2.900;2022-08-19T02:35:52;8.77;;;4.50;;
60851;SDS011;48553;50.766;2.900;2022-08-19T02:38:52;11.50;;;5.20;;
60851;SDS011;48553;50.766;2.900;2022-08-19T02:41:53;8.18;;;4.15;;
60851;SDS011;48553;50.766;2.900;2022-08-19T02:44:54;9.32;;;4.22;;
60851;SDS011;48553;50.766;2.900;2022-08-19T02:47:55;9.40;;;4.50;;
60851;SDS011;48553;50.766;2.900;2022-08-19T02:50:57;8.63;;;4.63;;
60851;SDS011;48553;50.766;2.900;2022-08-19T02:53:57;8.40;;;4.32;;
60851;SDS011;48553;50.766;2.900;2022-08-19T02:56:59;9.60;;;4.70;;
60851;SDS011;48553;50.766;2.900;2022-08-19T03:00:00;9.85;;;4.78;;
60851;SDS011;48553;50.766;2.900;2022-08-19T03:03:01;10.52;;;4.60;;
60851;SDS011;48553;50.766;2.900;2022-08-19T03:06:03;9.23;;;4.90;;
60851;SDS011;48553;50.766;2.900;2022-08-19T03:09:13;9.82;;;4.45;;
60851;SDS011;48553;50.766;2.900;2022-08-19T03:12:15;8.73;;;4.20;;
60851;SDS011;48553;50.766;2.900;2022-08-19T03:15:15;11.77;;;4.90;;
60851;SDS011;48553;50.766;2.900;2022-08-19T03:18:16;9.38;;;4.05;;
60851;SDS011;48553;50.766;2.900;2022-08-19T03:21:18;7.32;;;3.95;;
60851;SDS011;48553;50.766;2.900;2022-08-19T03:24:21;8.50;;;4.23;;
60851;SDS011;48553;50.766;2.900;2022-08-19T03:27:21;8.65;;;4.22;;
60851;SDS011;48553;50.766;2.900;2022-08-19T03:30:22;8.40;;;4.30;;
60851;SDS011;48553;50.766;2.900;2022-08-19T03:33:22;8.07;;;4.10;;
60851;SDS011;48553;50.766;2.900;2022-08-19T03:36:24;7.43;;;4.13;;
60851;SDS011;48553;50.766;2.900;2022-08-19T03:39:26;9.18;;;3.85;;
60851;SDS011;48553;50.766;2.900;2022-08-19T03:42:27;7.78;;;3.55;;
60851;SDS011;48553;50.766;2.900;2022-08-19T03:45:28;7.70;;;3.65;;
60851;SDS011;48553;50.766;2.900;2022-08-19T03:48:29;9.43;;;3.90;;
60851;SDS011;48553;50.766;2.900;2022-08-19T03:51:30;8.70;;;3.67;;
60851;SDS011;48553;50.766;2.900;2022-08-19T03:54:33;9.40;;;3.75;;
60851;SDS011;48553;50.766;2.900;2022-08-19T03:57:34;8.05;;;3.80;;
60851;SDS011;48553;50.766;2.900;2022-08-19T04:00:34;8.98;;;4.25;;
60851;SDS011;48553;50.766;2.900;2022-08-19T04:03:36;7.55;;;4.30;;
60851;SDS011;48553;50.766;2.900;2022-08-19T04:06:38;9.02;;;4.22;;
60851;SDS011;48553;50.766;2.900;2022-08-19T04:09:39;8.05;;;4.00;;
60851;SDS011;48553;50.766;2.900;2022-08-19T04:12:39;8.63;;;3.97;;
60851;SDS011;48553;50.766;2.900;2022-08-19T04:15:41;9.80;;;4.22;;
60851;SDS011;48553;50.766;2.900;2022-08-19T04:18:42;8.45;;;4.07;;
60851;SDS011;48553;50.766;2.900;2022-08-19T04:21:44;7.53;;;4.18;;
60851;SDS011;48553;50.766;2.900;2022-08-19T04:24:46;8.60;;;4.00;;
60851;SDS011;48553;50.766;2.900;2022-08-19T04:27:47;9.23;;;4.32;;
60851;SDS011;48553;50.766;2.900;2022-08-19T04:30:50;8.57;;;4.43;;
60851;SDS011;48553;50.766;2.900;2022-08-19T04:33:53;8.00;;;4.45;;
60851;SDS011;48553;50.766;2.900;2022-08-19T04:36:55;8.35;;;4.43;;
60851;SDS011;48553;50.766;2.900;2022-08-19T04:39:57;8.20;;;4.75;;
60851;SDS011;48553;50.766;2.900;2022-08-19T04:43:16;10.15;;;4.80;;
60851;SDS011;48553;50.766;2.900;2022-08-19T04:46:16;9.18;;;4.60;;
60851;SDS011;48553;50.766;2.900;2022-08-19T04:49:18;9.77;;;4.85;;
60851;SDS011;48553;50.766;2.900;2022-08-19T04:52:21;9.25;;;5.00;;
60851;SDS011;48553;50.766;2.900;2022-08-19T04:55:22;9.90;;;5.00;;
60851;SDS011;48553;50.766;2.900;2022-08-19T04:58:25;10.88;;;4.85;;
60851;SDS011;48553;50.766;2.900;2022-08-19T05:01:27;9.63;;;4.88;;
60851;SDS011;48553;50.766;2.900;2022-08-19T05:04:29;7.07;;;4.70;;
60851;SDS011;48553;50.766;2.900;2022-08-19T05:07:33;7.15;;;4.85;;
60851;SDS011;48553;50.766;2.900;2022-08-19T05:10:35;8.48;;;4.55;;
60851;SDS011;48553;50.766;2.900;2022-08-19T05:13:36;7.55;;;4.40;;
60851;SDS011;48553;50.766;2.900;2022-08-19T05:16:36;8.15;;;4.72;;
60851;SDS011;48553;50.766;2.900;2022-08-19T05:19:37;8.48;;;4.80;;
60851;SDS011;48553;50.766;2.900;2022-08-19T05:22:56;8.82;;;4.60;;
60851;SDS011;48553;50.766;2.900;2022-08-19T05:25:56;6.95;;;4.55;;
60851;SDS011;48553;50.766;2.900;2022-08-19T05:28:57;8.65;;;4.80;;
60851;SDS011;48553;50.766;2.900;2022-08-19T05:31:57;8.75;;;5.00;;
60851;SDS011;48553;50.766;2.900;2022-08-19T05:34:59;8.88;;;5.00;;
60851;SDS011;48553;50.766;2.900;2022-08-19T05:37:59;8.68;;;5.05;;
60851;SDS011;48553;50.766;2.900;2022-08-19T05:41:00;11.18;;;5.60;;
60851;SDS011;48553;50.766;2.900;2022-08-19T05:44:02;8.48;;;5.20;;
60851;SDS011;48553;50.766;2.900;2022-08-19T05:47:07;11.85;;;5.60;;
60851;SDS011;48553;50.766;2.900;2022-08-19T05:50:08;9.75;;;5.47;;
60851;SDS011;48553;50.766;2.900;2022-08-19T05:53:09;11.18;;;5.40;;
60851;SDS011;48553;50.766;2.900;2022-08-19T05:56:11;9.15;;;5.05;;
60851;SDS011;48553;50.766;2.900;2022-08-19T05:59:15;9.35;;;5.05;;
60851;SDS011;48553;50.766;2.900;2022-08-19T06:02:16;8.77;;;5.10;;
60851;SDS011;48553;50.766;2.900;2022-08-19T06:05:17;9.10;;;4.80;;
60851;SDS011;48553;50.766;2.900;2022-08-19T06:08:17;10.00;;;4.63;;
60851;SDS011;48553;50.766;2.900;2022-08-19T06:11:32;9.55;;;4.55;;
60851;SDS011;48553;50.766;2.900;2022-08-19T06:14:43;8.83;;;4.37;;
60851;SDS011;48553;50.766;2.900;2022-08-19T06:17:43;9.23;;;4.50;;
60851;SDS011;48553;50.766;2.900;2022-08-19T06:20:44;9.05;;;4.40;;
60851;SDS011;48553;50.766;2.900;2022-08-19T06:23:45;9.30;;;4.07;;
60851;SDS011;48553;50.766;2.900;2022-08-19T06:26:48;7.22;;;3.95;;
60851;SDS011;48553;50.766;2.900;2022-08-19T06:29:49;6.95;;;3.92;;
60851;SDS011;48553;50.766;2.900;2022-08-19T06:32:50;8.25;;;4.13;;
60851;SDS011;48553;50.766;2.900;2022-08-19T06:35:50;5.97;;;3.33;;
60851;SDS011;48553;50.766;2.900;2022-08-19T06:38:51;7.38;;;3.70;;
60851;SDS011;48553;50.766;2.900;2022-08-19T06:41:52;7.50;;;3.30;;
60851;SDS011;48553;50.766;2.900;2022-08-19T06:44:55;7.35;;;3.50;;
60851;SDS011;48553;50.766;2.900;2022-08-19T06:47:55;6.45;;;3.03;;
60851;SDS011;48553;50.766;2.900;2022-08-19T06:50:56;6.05;;;3.00;;
60851;SDS011;48553;50.766;2.900;2022-08-19T06:53:57;7.05;;;3.28;;
60851;SDS011;48553;50.766;2.900;2022-08-19T06:56:58;6.53;;;2.90;;
60851;SDS011;48553;50.766;2.900;2022-08-19T07:00:03;8.55;;;3.00;;
60851;SDS011;48553;50.766;2.900;2022-08-19T07:03:05;6.88;;;2.70;;
60851;SDS011;48553;50.766;2.900;2022-08-19T07:06:09;4.82;;;2.28;;
60851;SDS011;48553;50.766;2.900;2022-08-19T07:09:13;5.90;;;2.58;;
60851;SDS011;48553;50.766;2.900;2022-08-19T07:12:14;5.15;;;2.60;;
60851;SDS011;48553;50.766;2.900;2022-08-19T07:15:15;5.93;;;2.60;;
60851;SDS011;48553;50.766;2.900;2022-08-19T07:18:17;6.97;;;2.67;;
60851;SDS011;48553;50.766;2.900;2022-08-19T07:21:21;4.10;;;2.17;;
60851;SDS011;48553;50.766;2.900;2022-08-19T07:24:29;4.93;;;2.47;;
60851;SDS011;48553;50.766;2.900;2022-08-19T07:27:29;5.57;;;2.30;;
60851;SDS011;48553;50.766;2.900;2022-08-19T07:30:31;4.50;;;2.33;;
60851;SDS011;48553;50.766;2.900;2022-08-19T07:33:32;5.88;;;2.25;;
60851;SDS011;48553;50.766;2.900;2022-08-19T07:36:37;6.22;;;2.00;;
60851;SDS011;48553;50.766;2.900;2022-08-19T07:39:40;7.30;;;2.50;;
60851;SDS011;48553;50.766;2.900;2022-08-19T07:42:41;5.43;;;2.15;;
60851;SDS011;48553;50.766;2.900;2022-08-19T07:45:43;4.68;;;1.77;;
60851;SDS011;48553;50.766;2.900;2022-08-19T07:48:44;4.88;;;2.38;;
60851;SDS011;48553;50.766;2.900;2022-08-19T07:51:49;4.22;;;1.75;;
60851;SDS011;48553;50.766;2.900;2022-08-19T07:54:52;3.85;;;1.80;;
60851;SDS011;48553;50.766;2.900;2022-08-19T07:57:52;3.67;;;2.20;;
60851;SDS011;48553;50.766;2.900;2022-08-19T08:00:53;4.25;;;2.00;;
60851;SDS011;48553;50.766;2.900;2022-08-19T08:03:54;3.83;;;1.85;;
60851;SDS011;48553;50.766;2.900;2022-08-19T08:07:14;4.03;;;1.80;;
60851;SDS011;48553;50.766;2.900;2022-08-19T08:10:33;3.58;;;1.60;;
60851;SDS011;48553;50.766;2.900;2022-08-19T08:13:34;2.72;;;1.38;;
60851;SDS011;48553;50.766;2.900;2022-08-19T08:16:38;3.13;;;1.20;;
60851;SDS011;48553;50.766;2.900;2022-08-19T08:19:39;3.28;;;1.20;;
60851;SDS011;48553;50.766;2.900;2022-08-19T08:22:46;2.15;;;1.02;;
60851;SDS011;48553;50.766;2.900;2022-08-19T08:26:06;2.95;;;1.00;;
60851;SDS011;48553;50.766;2.900;2022-08-19T08:29:06;1.58;;;0.77;;
60851;SDS011;48553;50.766;2.900;2022-08-19T08:32:12;2.63;;;0.70;;
60851;SDS011;48553;50.766;2.900;2022-08-19T08:35:15;0.98;;;0.57;;
60851;SDS011;48553;50.766;2.900;2022-08-19T08:38:18;1.50;;;0.50;;
60851;SDS011;48553;50.766;2.900;2022-08-19T08:41:40;2.95;;;0.60;;
60851;SDS011;48553;50.766;2.900;2022-08-19T08:44:58;1.02;;;0.50;;
60851;SDS011;48553;50.766;2.900;2022-08-19T08:48:19;1.90;;;0.57;;
60851;SDS011;48553;50.766;2.900;2022-08-19T08:51:39;2.15;;;0.40;;
60851;SDS011;48553;50.766;2.900;2022-08-19T08:54:44;1.45;;;0.57;;
60851;SDS011;48553;50.766;2.900;2022-08-19T08:58:00;1.38;;;0.50;;
60851;SDS011;48553;50.766;2.900;2022-08-19T09:01:05;1.30;;;0.50;;
60851;SDS011;48553;50.766;2.900;2022-08-19T09:04:05;0.60;;;0.32;;
60851;SDS011;48553;50.766;2.900;2022-08-19T09:10:44;1.20;;;0.57;;
60851;SDS011;48553;50.766;2.900;2022-08-19T09:20:19;1.40;;;0.40;;
60851;SDS011;48553;50.766;2.900;2022-08-19T09:23:22;1.77;;;0.40;;
60851;SDS011;48553;50.766;2.900;2022-08-19T09:26:24;1.90;;;0.80;;
60851;SDS011;48553;50.766;2.900;2022-08-19T09:29:25;2.60;;;0.85;;
60851;SDS011;48553;50.766;2.900;2022-08-19T09:32:25;2.67;;;1.20;;
60851;SDS011;48553;50.766;2.900;2022-08-19T09:35:28;6.93;;;4.57;;
60851;SDS011;48553;50.766;2.900;2022-08-19T09:38:29;6.65;;;4.53;;
60851;SDS011;48553;50.766;2.900;2022-08-19T09:41:30;4.93;;;3.17;;
60851;SDS011;48553;50.766;2.900;2022-08-19T09:44:30;5.30;;;2.78;;
60851;SDS011;48553;50.766;2.900;2022-08-19T09:47:33;4.22;;;2.25;;
60851;SDS011;48553;50.766;2.900;2022-08-19T09:50:37;3.53;;;1.65;;
60851;SDS011;48553;50.766;2.900;2022-08-19T09:53:38;4.68;;;1.80;;
60851;SDS011;48553;50.766;2.900;2022-08-19T09:56:39;3.17;;;1.65;;
60851;SDS011;48553;50.766;2.900;2022-08-19T09:59:39;2.40;;;1.30;;
60851;SDS011;48553;50.766;2.900;2022-08-19T10:02:40;2.13;;;0.90;;
60851;SDS011;48553;50.766;2.900;2022-08-19T10:05:40;2.33;;;1.08;;
60851;SDS011;48553;50.766;2.900;2022-08-19T10:08:50;1.85;;;0.80;;
60851;SDS011;48553;50.766;2.900;2022-08-19T10:11:51;3.17;;;0.85;;
60851;SDS011;48553;50.766;2.900;2022-08-19T10:14:52;1.95;;;0.80;;
60851;SDS011;48553;50.766;2.900;2022-08-19T10:17:54;1.90;;;0.70;;
60851;SDS011;48553;50.766;2.900;2022-08-19T10:21:02;2.22;;;0.70;;
60851;SDS011;48553;50.766;2.900;2022-08-19T10:24:08;1.10;;;0.50;;
60851;SDS011;48553;50.766;2.900;2022-08-19T10:27:08;2.55;;;0.70;;
60851;SDS011;48553;50.766;2.900;2022-08-19T10:30:09;1.90;;;0.65;;
60851;SDS011;48553;50.766;2.900;2022-08-19T10:33:10;2.67;;;0.93;;
60851;SDS011;48553;50.766;2.900;2022-08-19T10:36:16;2.65;;;0.80;;
60851;SDS011;48553;50.766;2.900;2022-08-19T10:39:18;1.95;;;0.73;;
60851;SDS011;48553;50.766;2.900;2022-08-19T10:42:18;2.47;;;0.65;;
60851;SDS011;48553;50.766;2.900;2022-08-19T10:45:19;3.67;;;0.80;;
60851;SDS011;48553;50.766;2.900;2022-08-19T10:48:22;2.28;;;1.08;;
60851;SDS011;48553;50.766;2.900;2022-08-19T10:51:22;4.68;;;1.20;;
60851;SDS011;48553;50.766;2.900;2022-08-19T10:54:41;3.05;;;1.48;;
60851;SDS011;48553;50.766;2.900;2022-08-19T10:58:00;3.33;;;1.10;;
60851;SDS011;48553;50.766;2.900;2022-08-19T11:01:01;3.85;;;1.15;;
60851;SDS011;48553;50.766;2.900;2022-08-19T11:04:02;2.80;;;1.20;;
60851;SDS011;48553;50.766;2.900;2022-08-19T11:07:04;3.65;;;1.10;;
60851;SDS011;48553;50.766;2.900;2022-08-19T11:10:06;2.80;;;1.00;;
60851;SDS011;48553;50.766;2.900;2022-08-19T11:13:09;4.80;;;1.20;;
60851;SDS011;48553;50.766;2.900;2022-08-19T11:16:11;2.20;;;1.00;;
60851;SDS011;48553;50.766;2.900;2022-08-19T11:19:14;3.95;;;1.50;;
60851;SDS011;48553;50.766;2.900;2022-08-19T11:22:18;3.85;;;1.92;;
60851;SDS011;48553;50.766;2.900;2022-08-19T11:25:20;3.50;;;1.25;;
60851;SDS011;48553;50.766;2.900;2022-08-19T11:28:20;2.92;;;1.45;;
60851;SDS011;48553;50.766;2.900;2022-08-19T11:31:22;4.50;;;2.40;;
60851;SDS011;48553;50.766;2.900;2022-08-19T11:34:25;8.68;;;4.20;;
60851;SDS011;48553;50.766;2.900;2022-08-19T11:37:29;12.43;;;7.10;;
60851;SDS011;48553;50.766;2.900;2022-08-19T11:40:29;11.07;;;5.85;;
60851;SDS011;48553;50.766;2.900;2022-08-19T11:43:30;7.68;;;3.75;;
60851;SDS011;48553;50.766;2.900;2022-08-19T11:46:32;8.23;;;3.78;;
60851;SDS011;48553;50.766;2.900;2022-08-19T11:49:32;6.35;;;3.97;;
60851;SDS011;48553;50.766;2.900;2022-08-19T11:52:36;13.48;;;6.82;;
60851;SDS011;48553;50.766;2.900;2022-08-19T11:55:37;11.50;;;6.10;;
60851;SDS011;48553;50.766;2.900;2022-08-19T11:58:40;6.45;;;3.95;;
60851;SDS011;48553;50.766;2.900;2022-08-19T12:01:43;5.73;;;3.10;;
60851;SDS011;48553;50.766;2.900;2022-08-19T12:04:44;6.78;;;3.03;;
60851;SDS011;48553;50.766;2.900;2022-08-19T12:07:44;6.22;;;3.33;;
60851;SDS011;48553;50.766;2.900;2022-08-19T12:10:45;6.78;;;3.10;;
60851;SDS011;48553;50.766;2.900;2022-08-19T12:13:46;6.88;;;3.40;;
60851;SDS011;48553;50.766;2.900;2022-08-19T12:16:47;5.68;;;3.22;;
60851;SDS011;48553;50.766;2.900;2022-08-19T12:19:48;6.43;;;2.97;;
60851;SDS011;48553;50.766;2.900;2022-08-19T12:22:48;4.45;;;2.42;;
60851;SDS011;48553;50.766;2.900;2022-08-19T12:25:49;6.10;;;2.38;;
60851;SDS011;48553;50.766;2.900;2022-08-19T12:28:52;5.43;;;1.60;;
60851;SDS011;48553;50.766;2.900;2022-08-19T12:31:53;5.20;;;1.45;;
60851;SDS011;48553;50.766;2.900;2022-08-19T12:35:01;4.18;;;1.20;;
60851;SDS011;48553;50.766;2.900;2022-08-19T12:38:01;2.80;;;1.10;;
60851;SDS011;48553;50.766;2.900;2022-08-19T12:41:03;3.15;;;0.75;;
60851;SDS011;48553;50.766;2.900;2022-08-19T12:44:06;2.53;;;0.90;;
60851;SDS011;48553;50.766;2.900;2022-08-19T12:47:06;3.22;;;0.77;;
60851;SDS011;48553;50.766;2.900;2022-08-19T12:50:08;3.33;;;0.70;;
60851;SDS011;48553;50.766;2.900;2022-08-19T12:53:09;3.33;;;0.73;;
60851;SDS011;48553;50.766;2.900;2022-08-19T12:56:10;3.38;;;0.80;;
60851;SDS011;48553;50.766;2.900;2022-08-19T12:59:11;3.65;;;0.77;;
60851;SDS011;48553;50.766;2.900;2022-08-19T13:02:12;2.83;;;0.68;;
60851;SDS011;48553;50.766;2.900;2022-08-19T13:05:13;2.80;;;0.82;;
60851;SDS011;48553;50.766;2.900;2022-08-19T13:08:16;2.30;;;0.60;;
60851;SDS011;48553;50.766;2.900;2022-08-19T13:11:18;3.08;;;0.80;;
60851;SDS011;48553;50.766;2.900;2022-08-19T13:14:20;2.72;;;0.90;;
60851;SDS011;48553;50.766;2.900;2022-08-19T13:17:20;2.70;;;0.90;;
60851;SDS011;48553;50.766;2.900;2022-08-19T13:20:21;3.17;;;1.17;;
60851;SDS011;48553;50.766;2.900;2022-08-19T13:23:22;4.40;;;1.70;;
60851;SDS011;48553;50.766;2.900;2022-08-19T13:26:22;3.15;;;1.83;;
60851;SDS011;48553;50.766;2.900;2022-08-19T13:29:23;3.20;;;1.67;;
60851;SDS011;48553;50.766;2.900;2022-08-19T13:32:42;4.30;;;2.38;;
60851;SDS011;48553;50.766;2.900;2022-08-19T13:36:02;4.53;;;3.00;;
60851;SDS011;48553;50.766;2.900;2022-08-19T13:39:04;4.13;;;2.30;;
60851;SDS011;48553;50.766;2.900;2022-08-19T13:42:07;5.50;;;2.15;;
60851;SDS011;48553;50.766;2.900;2022-08-19T13:45:10;4.72;;;1.75;;
60851;SDS011;48553;50.766;2.900;2022-08-19T13:48:11;3.35;;;1.42;;
60851;SDS011;48553;50.766;2.900;2022-08-19T13:51:12;2.22;;;1.00;;
60851;SDS011;48553;50.766;2.900;2022-08-19T13:54:12;4.47;;;1.05;;
60851;SDS011;48553;50.766;2.900;2022-08-19T13:57:13;2.58;;;0.95;;
60851;SDS011;48553;50.766;2.900;2022-08-19T14:00:15;2.03;;;0.90;;
60851;SDS011;48553;50.766;2.900;2022-08-19T14:03:20;2.78;;;0.90;;
60851;SDS011;48553;50.766;2.900;2022-08-19T14:06:20;2.13;;;0.88;;
60851;SDS011;48553;50.766;2.900;2022-08-19T14:09:22;2.95;;;1.15;;
60851;SDS011;48553;50.766;2.900;2022-08-19T14:12:22;3.53;;;1.33;;
60851;SDS011;48553;50.766;2.900;2022-08-19T14:15:23;2.88;;;1.00;;
60851;SDS011;48553;50.766;2.900;2022-08-19T14:18:24;2.58;;;1.35;;
60851;SDS011;48553;50.766;2.900;2022-08-19T14:21:25;4.32;;;1.13;;
60851;SDS011;48553;50.766;2.900;2022-08-19T14:24:25;3.10;;;1.00;;
60851;SDS011;48553;50.766;2.900;2022-08-19T14:27:26;2.38;;;1.00;;
60851;SDS011;48553;50.766;2.900;2022-08-19T14:30:29;2.67;;;1.15;;
60851;SDS011;48553;50.766;2.900;2022-08-19T14:33:31;2.65;;;1.67;;
60851;SDS011;48553;50.766;2.900;2022-08-19T14:36:32;3.67;;;1.75;;
60851;SDS011;48553;50.766;2.900;2022-08-19T14:39:34;2.33;;;1.20;;
60851;SDS011;48553;50.766;2.900;2022-08-19T14:42:35;4.90;;;2.70;;
60851;SDS011;48553;50.766;2.900;2022-08-19T14:45:36;5.28;;;2.30;;
60851;SDS011;48553;50.766;2.900;2022-08-19T14:48:38;5.57;;;3.00;;
60851;SDS011;48553;50.766;2.900;2022-08-19T14:51:38;3.17;;;1.63;;
60851;SDS011;48553;50.766;2.900;2022-08-19T14:54:39;3.50;;;1.50;;
60851;SDS011;48553;50.766;2.900;2022-08-19T14:57:40;2.70;;;1.13;;
60851;SDS011;48553;50.766;2.900;2022-08-19T15:00:41;5.72;;;1.90;;
60851;SDS011;48553;50.766;2.900;2022-08-19T15:03:42;5.30;;;1.63;;
60851;SDS011;48553;50.766;2.900;2022-08-19T15:06:42;2.85;;;1.35;;
60851;SDS011;48553;50.766;2.900;2022-08-19T15:09:42;4.97;;;3.50;;
60851;SDS011;48553;50.766;2.900;2022-08-19T15:12:43;3.47;;;0.80;;
60851;SDS011;48553;50.766;2.900;2022-08-19T15:15:43;2.85;;;0.80;;
60851;SDS011;48553;50.766;2.900;2022-08-19T15:18:45;4.93;;;0.80;;
60851;SDS011;48553;50.766;2.900;2022-08-19T15:24:49;3.45;;;0.70;;
60851;SDS011;48553;50.766;2.900;2022-08-19T15:27:50;4.03;;;3.63;;
60851;SDS011;48553;50.766;2.900;2022-08-19T15:30:51;5.78;;;5.22;;
60851;SDS011;48553;50.766;2.900;2022-08-19T15:33:52;7.65;;;4.95;;
60851;SDS011;48553;50.766;2.900;2022-08-19T15:36:56;3.55;;;2.67;;
60851;SDS011;48553;50.766;2.900;2022-08-19T15:39:58;2.08;;;0.82;;
60851;SDS011;48553;50.766;2.900;2022-08-19T15:42:58;2.97;;;0.63;;
60851;SDS011;48553;50.766;2.900;2022-08-19T15:45:59;5.15;;;0.70;;
60851;SDS011;48553;50.766;2.900;2022-08-19T15:48:59;2.67;;;0.70;;
60851;SDS011;48553;50.766;2.900;2022-08-19T15:52:00;3.28;;;0.60;;
60851;SDS011;48553;50.766;2.900;2022-08-19T15:55:00;2.78;;;0.90;;
60851;SDS011;48553;50.766;2.900;2022-08-19T15:58:04;3.10;;;0.88;;
60851;SDS011;48553;50.766;2.900;2022-08-19T16:01:28;3.83;;;1.30;;
60851;SDS011;48553;50.766;2.900;2022-08-19T16:04:28;5.03;;;1.63;;
60851;SDS011;48553;50.766;2.900;2022-08-19T16:07:47;3.80;;;2.05;;
60851;SDS011;48553;50.766;2.900;2022-08-19T16:13:51;4.85;;;2.03;;
60851;SDS011;48553;50.766;2.900;2022-08-19T16:16:53;5.13;;;2.00;;
60851;SDS011;48553;50.766;2.900;2022-08-19T16:19:55;4.18;;;1.52;;
60851;SDS011;48553;50.766;2.900;2022-08-19T16:22:56;3.75;;;1.40;;
60851;SDS011;48553;50.766;2.900;2022-08-19T16:25:58;3.05;;;1.60;;
60851;SDS011;48553;50.766;2.900;2022-08-19T16:28:58;5.40;;;2.25;;
60851;SDS011;48553;50.766;2.900;2022-08-19T16:32:01;5.05;;;2.40;;
60851;SDS011;48553;50.766;2.900;2022-08-19T16:35:04;5.53;;;2.60;;
60851;SDS011;48553;50.766;2.900;2022-08-19T16:38:05;5.38;;;2.30;;
60851;SDS011;48553;50.766;2.900;2022-08-19T16:41:06;5.75;;;3.10;;
60851;SDS011;48553;50.766;2.900;2022-08-19T16:44:07;4.82;;;2.17;;
60851;SDS011;48553;50.766;2.900;2022-08-19T16:47:10;4.13;;;1.67;;
60851;SDS011;48553;50.766;2.900;2022-08-19T16:50:12;3.83;;;1.30;;
60851;SDS011;48553;50.766;2.900;2022-08-19T16:53:13;3.67;;;1.23;;
60851;SDS011;48553;50.766;2.900;2022-08-19T16:56:14;1.83;;;0.88;;
60851;SDS011;48553;50.766;2.900;2022-08-19T16:59:15;3.33;;;0.85;;
60851;SDS011;48553;50.766;2.900;2022-08-19T17:02:16;2.38;;;0.80;;
60851;SDS011;48553;50.766;2.900;2022-08-19T17:05:18;1.90;;;0.80;;
60851;SDS011;48553;50.766;2.900;2022-08-19T17:08:20;1.67;;;0.63;;
60851;SDS011;48553;50.766;2.900;2022-08-19T17:11:22;2.38;;;0.70;;
60851;SDS011;48553;50.766;2.900;2022-08-19T17:14:25;2.15;;;0.70;;
60851;SDS011;48553;50.766;2.900;2022-08-19T17:17:25;2.30;;;0.70;;
60851;SDS011;48553;50.766;2.900;2022-08-19T17:20:26;2.65;;;0.60;;
60851;SDS011;48553;50.766;2.900;2022-08-19T17:23:27;2.13;;;0.70;;
60851;SDS011;48553;50.766;2.900;2022-08-19T17:26:29;2.65;;;1.00;;
60851;SDS011;48553;50.766;2.900;2022-08-19T17:29:31;3.03;;;0.80;;
60851;SDS011;48553;50.766;2.900;2022-08-19T17:32:31;1.95;;;0.90;;
60851;SDS011;48553;50.766;2.900;2022-08-19T17:35:34;3.65;;;1.17;;
60851;SDS011;48553;50.766;2.900;2022-08-19T17:38:35;2.65;;;1.02;;
60851;SDS011;48553;50.766;2.900;2022-08-19T17:41:36;2.70;;;1.30;;
60851;SDS011;48553;50.766;2.900;2022-08-19T17:44:37;3.45;;;1.38;;
60851;SDS011;48553;50.766;2.900;2022-08-19T17:47:37;3.47;;;1.42;;
60851;SDS011;48553;50.766;2.900;2022-08-19T17:50:39;3.70;;;1.70;;
60851;SDS011;48553;50.766;2.900;2022-08-19T17:53:40;3.35;;;1.50;;
60851;SDS011;48553;50.766;2.900;2022-08-19T17:56:40;2.47;;;1.10;;
60851;SDS011;48553;50.766;2.900;2022-08-19T17:59:42;2.38;;;0.90;;
60851;SDS011;48553;50.766;2.900;2022-08-19T18:02:43;2.80;;;0.70;;
60851;SDS011;48553;50.766;2.900;2022-08-19T18:05:49;2.35;;;0.63;;
60851;SDS011;48553;50.766;2.900;2022-08-19T18:08:50;1.85;;;0.90;;
60851;SDS011;48553;50.766;2.900;2022-08-19T18:11:52;1.20;;;0.60;;
60851;SDS011;48553;50.766;2.900;2022-08-19T18:14:53;1.17;;;0.50;;
60851;SDS011;48553;50.766;2.900;2022-08-19T18:17:53;0.80;;;0.40;;
60851;SDS011;48553;50.766;2.900;2022-08-19T18:20:55;1.08;;;0.38;;
60851;SDS011;48553;50.766;2.900;2022-08-19T18:23:56;0.45;;;0.30;;
60851;SDS011;48553;50.766;2.900;2022-08-19T18:26:57;0.82;;;0.40;;
60851;SDS011;48553;50.766;2.900;2022-08-19T18:29:57;0.77;;;0.30;;
60851;SDS011;48553;50.766;2.900;2022-08-19T18:32:58;1.13;;;0.43;;